createdAt,value
2022-11-16T00:00:47.572Z,1000.0
2022-11-16T00:01:47.655Z,999.9
2022-11-16T00:02:47.585Z,999.9
2022-11-16T00:03:47.589Z,999.9
2022-11-16T00:04:47.614Z,999.9
2022-11-16T00:05:47.599Z,999.8
2022-11-16T00:06:47.692Z,999.8
2022-11-16T00:07:47.622Z,999.8
2022-11-16T00:08:47.626Z,999.9
2022-11-16T00:09:47.640Z,999.8
2022-11-16T00:10:47.653Z,999.9
2022-11-16T00:11:47.653Z,999.8
2022-11-16T00:12:47.663Z,999.8
2022-11-16T00:13:47.675Z,999.8
2022-11-16T00:14:47.685Z,999.7
2022-11-16T00:15:47.692Z,999.7
2022-11-16T00:16:47.703Z,999.7
2022-11-16T00:17:47.709Z,999.7
2022-11-16T00:18:47.717Z,999.7
2022-11-16T00:19:47.727Z,999.7
2022-11-16T00:20:47.728Z,999.6
2022-11-16T00:21:47.737Z,999.6
2022-11-16T00:22:47.771Z,999.6
2022-11-16T00:23:47.746Z,999.6
2022-11-16T00:24:47.753Z,999.6
2022-11-16T00:25:47.769Z,999.6
2022-11-16T00:26:47.773Z,999.7
2022-11-16T00:27:47.780Z,999.6
2022-11-16T00:28:47.783Z,999.5
2022-11-16T00:29:47.800Z,999.7
2022-11-16T00:30:51.578Z,999.6
2022-11-16T00:31:47.841Z,999.5
2022-11-16T00:32:47.820Z,999.5
2022-11-16T00:33:47.831Z,999.6
2022-11-16T00:34:47.840Z,999.6
2022-11-16T00:35:47.848Z,999.5
2022-11-16T00:36:47.852Z,999.5
2022-11-16T00:37:47.858Z,999.5
2022-11-16T00:38:47.864Z,999.5
2022-11-16T00:39:47.928Z,999.5
2022-11-16T00:40:47.872Z,999.5
2022-11-16T00:41:47.888Z,999.5
2022-11-16T00:42:47.893Z,999.5
2022-11-16T00:43:47.894Z,999.5
2022-11-16T00:44:47.902Z,999.6
2022-11-16T00:45:47.905Z,999.5
2022-11-16T00:46:47.919Z,999.6
2022-11-16T00:47:47.920Z,999.6
2022-11-16T00:48:47.929Z,999.6
2022-11-16T00:49:47.938Z,999.6
2022-11-16T00:50:47.937Z,999.6
2022-11-16T00:51:47.956Z,999.6
2022-11-16T00:52:47.952Z,999.5
2022-11-16T00:53:47.966Z,999.5
2022-11-16T00:54:47.988Z,999.5
2022-11-16T00:55:47.998Z,999.5
2022-11-16T00:56:47.994Z,999.5
2022-11-16T00:57:48.005Z,999.6
2022-11-16T00:58:48.008Z,999.5
2022-11-16T00:59:48.019Z,999.6
2022-11-16T01:00:48.024Z,999.6
2022-11-16T01:01:48.161Z,999.5
2022-11-16T01:02:48.052Z,999.5
2022-11-16T01:03:48.070Z,999.5
2022-11-16T01:04:48.077Z,999.5
2022-11-16T01:05:48.087Z,999.4
2022-11-16T01:06:48.179Z,999.5
2022-11-16T01:07:48.094Z,999.4
2022-11-16T01:08:48.105Z,999.4
2022-11-16T01:09:48.170Z,999.4
2022-11-16T01:10:48.109Z,999.3
2022-11-16T01:11:48.134Z,999.4
2022-11-16T01:12:48.132Z,999.4
2022-11-16T01:13:48.131Z,999.4
2022-11-16T01:14:48.146Z,999.5
2022-11-16T01:15:48.167Z,999.4
2022-11-16T01:16:48.157Z,999.4
2022-11-16T01:17:48.169Z,999.4
2022-11-16T01:18:48.176Z,999.4
2022-11-16T01:19:48.183Z,999.5
2022-11-16T01:20:48.194Z,999.4
2022-11-16T01:21:48.199Z,999.5
2022-11-16T01:22:48.219Z,999.4
2022-11-16T01:23:48.208Z,999.4
2022-11-16T01:24:48.227Z,999.4
2022-11-16T01:25:48.228Z,999.4
2022-11-16T01:26:48.240Z,999.4
2022-11-16T01:27:48.245Z,999.4
2022-11-16T01:28:48.254Z,999.4
2022-11-16T01:29:48.259Z,999.3
2022-11-16T01:30:48.266Z,999.3
2022-11-16T01:31:48.279Z,999.4
2022-11-16T01:32:48.285Z,999.3
2022-11-16T01:33:48.295Z,999.3
2022-11-16T01:34:48.294Z,999.3
2022-11-16T01:35:48.294Z,999.3
2022-11-16T01:36:48.310Z,999.3
2022-11-16T01:37:48.372Z,999.4
2022-11-16T01:38:48.323Z,999.2
2022-11-16T01:39:48.328Z,999.3
2022-11-16T01:40:48.335Z,999.4
2022-11-16T01:41:48.341Z,999.2
2022-11-16T01:59:48.682Z,999.2
2022-11-16T02:00:48.645Z,999.2
2022-11-16T02:01:48.485Z,999.2
2022-11-16T02:02:48.493Z,999.2
2022-11-16T02:03:48.504Z,999.2
2022-11-16T02:04:48.507Z,999.1
2022-11-16T02:05:48.519Z,999.2
2022-11-16T02:06:48.608Z,999.1
2022-11-16T02:07:48.535Z,999.0
2022-11-16T02:08:48.538Z,999.1
2022-11-16T02:09:48.543Z,999.0
2022-11-16T02:10:48.550Z,999.0
2022-11-16T02:11:48.556Z,999.0
2022-11-16T02:12:48.562Z,998.9
2022-11-16T02:13:51.624Z,999.0
2022-11-16T02:14:48.570Z,998.9
2022-11-16T02:15:48.588Z,998.9
2022-11-16T02:16:48.593Z,998.9
2022-11-16T02:17:48.596Z,998.8
2022-11-16T02:18:48.734Z,998.9
2022-11-16T02:19:48.608Z,999.0
2022-11-16T02:20:48.615Z,998.9
2022-11-16T02:21:48.630Z,998.8
2022-11-16T02:22:48.645Z,998.8
2022-11-16T02:23:48.642Z,998.8
2022-11-16T02:24:48.658Z,998.8
2022-11-16T02:25:48.659Z,998.8
2022-11-16T02:26:48.665Z,998.8
2022-11-16T02:27:48.673Z,998.8
2022-11-16T02:28:48.684Z,998.8
2022-11-16T02:29:48.692Z,998.7
2022-11-16T02:30:48.705Z,998.7
2022-11-16T02:31:48.712Z,998.7
2022-11-16T02:32:48.721Z,998.7
2022-11-16T02:33:48.733Z,998.8
2022-11-16T02:34:48.736Z,998.7
2022-11-16T02:35:48.738Z,998.6
2022-11-16T02:36:48.752Z,998.6
2022-11-16T02:37:48.757Z,998.6
2022-11-16T02:38:48.765Z,998.6
2022-11-16T02:39:48.772Z,998.5
2022-11-16T02:40:48.778Z,998.5
2022-11-16T02:41:48.803Z,998.5
2022-11-16T02:42:48.812Z,998.5
2022-11-16T02:43:48.811Z,998.5
2022-11-16T02:44:48.821Z,998.5
2022-11-16T02:45:48.828Z,998.6
2022-11-16T02:46:48.830Z,998.5
2022-11-16T02:47:48.843Z,998.6
2022-11-16T02:48:48.852Z,998.6
2022-11-16T02:49:48.860Z,998.6
2022-11-16T02:50:48.872Z,998.6
2022-11-16T02:51:48.887Z,998.6
2022-11-16T02:52:48.884Z,998.6
2022-11-16T02:53:48.895Z,998.6
2022-11-16T02:54:48.901Z,998.6
2022-11-16T02:55:48.906Z,998.6
2022-11-16T02:56:48.918Z,998.6
2022-11-16T02:57:48.945Z,998.6
2022-11-16T02:58:48.949Z,998.6
2022-11-16T02:59:48.946Z,998.6
2022-11-16T03:00:49.114Z,998.6
2022-11-16T03:01:48.974Z,998.6
2022-11-16T03:02:48.961Z,998.6
2022-11-16T03:03:48.968Z,998.6
2022-11-16T03:04:48.982Z,998.6
2022-11-16T03:05:48.985Z,998.6
2022-11-16T03:06:49.048Z,998.6
2022-11-16T03:07:48.996Z,998.6
2022-11-16T03:08:49.008Z,998.5
2022-11-16T03:09:49.015Z,998.6
2022-11-16T03:10:49.026Z,998.5
2022-11-16T03:11:49.036Z,998.6
2022-11-16T03:12:49.048Z,998.5
2022-11-16T03:13:49.051Z,998.6
2022-11-16T03:14:49.059Z,998.6
2022-11-16T03:15:49.061Z,998.6
2022-11-16T03:16:50.788Z,998.6
2022-11-16T03:17:49.087Z,998.6
2022-11-16T03:18:49.098Z,998.6
2022-11-16T03:19:49.103Z,998.6
2022-11-16T03:20:49.115Z,998.5
2022-11-16T03:21:49.120Z,998.6
2022-11-16T03:22:49.128Z,998.6
2022-11-16T03:23:49.145Z,998.6
2022-11-16T03:24:49.140Z,998.7
2022-11-16T03:25:49.149Z,998.7
2022-11-16T03:26:49.154Z,998.7
2022-11-16T03:27:49.168Z,998.6
2022-11-16T03:28:49.166Z,998.6
2022-11-16T03:29:49.177Z,998.7
2022-11-16T03:30:49.196Z,998.6
2022-11-16T03:31:49.190Z,998.6
2022-11-16T03:32:49.200Z,998.6
2022-11-16T03:33:49.207Z,998.6
2022-11-16T03:34:49.220Z,998.6
2022-11-16T03:35:49.223Z,998.5
2022-11-16T03:36:49.222Z,998.5
2022-11-16T03:37:49.237Z,998.5
2022-11-16T03:38:49.245Z,998.5
2022-11-16T03:39:49.257Z,998.5
2022-11-16T03:40:49.277Z,998.5
2022-11-16T03:41:49.272Z,998.6
2022-11-16T03:42:49.280Z,998.6
2022-11-16T03:43:49.292Z,998.6
2022-11-16T03:44:49.300Z,998.6
2022-11-16T03:45:49.320Z,998.6
2022-11-16T03:46:49.308Z,998.6
2022-11-16T03:47:49.321Z,998.6
2022-11-16T03:48:49.485Z,998.6
2022-11-16T03:49:49.338Z,998.6
2022-11-16T03:50:49.348Z,998.6
2022-11-16T03:51:49.357Z,998.7
2022-11-16T03:52:49.364Z,998.6
2022-11-16T03:53:49.380Z,998.6
2022-11-16T03:54:49.382Z,998.6
2022-11-16T03:55:50.210Z,998.7
2022-11-16T03:56:49.407Z,998.6
2022-11-16T03:57:49.416Z,998.6
2022-11-16T03:58:49.426Z,998.7
2022-11-16T03:59:49.429Z,998.6
2022-11-16T04:00:49.530Z,998.6
2022-11-16T04:01:49.539Z,998.5
2022-11-16T04:02:49.465Z,998.7
2022-11-16T04:03:49.606Z,998.5
2022-11-16T04:04:49.477Z,998.5
2022-11-16T04:05:49.481Z,998.6
2022-11-16T04:06:49.658Z,998.7
2022-11-16T04:07:49.500Z,998.7
2022-11-16T04:08:49.508Z,998.6
2022-11-16T04:09:49.516Z,998.7
2022-11-16T04:10:49.528Z,998.6
2022-11-16T04:11:49.533Z,998.6
2022-11-16T04:12:49.546Z,998.5
2022-11-16T04:13:49.555Z,998.6
2022-11-16T04:14:49.561Z,998.5
2022-11-16T04:15:49.571Z,998.5
2022-11-16T04:16:49.578Z,998.6
2022-11-16T04:17:49.593Z,998.5
2022-11-16T04:18:49.604Z,998.5
2022-11-16T04:19:58.051Z,998.5
2022-11-16T04:20:49.616Z,998.5
2022-11-16T04:21:49.629Z,998.6
2022-11-16T04:22:49.640Z,998.6
2022-11-16T04:23:49.645Z,998.5
2022-11-16T04:24:49.669Z,998.6
2022-11-16T04:25:49.680Z,998.5
2022-11-16T04:26:49.679Z,998.5
2022-11-16T04:27:49.689Z,998.4
2022-11-16T04:28:49.700Z,998.4
2022-11-16T04:29:49.706Z,998.5
2022-11-16T04:30:49.721Z,998.5
2022-11-16T04:31:49.728Z,998.4
2022-11-16T04:32:49.755Z,998.5
2022-11-16T04:33:49.744Z,998.6
2022-11-16T04:34:49.756Z,998.6
2022-11-16T04:35:49.760Z,998.6
2022-11-16T04:36:49.767Z,998.7
2022-11-16T04:37:49.788Z,998.6
2022-11-16T04:38:49.776Z,998.8
2022-11-16T04:39:49.790Z,998.7
2022-11-16T04:40:49.797Z,998.7
2022-11-16T04:41:49.801Z,998.8
2022-11-16T04:42:49.811Z,998.7
2022-11-16T04:43:49.812Z,998.8
2022-11-16T04:44:49.823Z,998.8
2022-11-16T04:45:49.832Z,998.7
2022-11-16T04:46:49.841Z,998.7
2022-11-16T04:47:49.849Z,998.8
2022-11-16T04:48:49.856Z,998.8
2022-11-16T04:49:49.864Z,998.7
2022-11-16T04:50:49.871Z,998.8
2022-11-16T04:51:49.882Z,998.8
2022-11-16T04:52:49.891Z,998.8
2022-11-16T04:53:49.900Z,998.7
2022-11-16T04:54:49.914Z,998.9
2022-11-16T04:55:49.924Z,998.8
2022-11-16T04:56:49.929Z,998.7
2022-11-16T04:57:49.939Z,998.8
2022-11-16T04:58:49.962Z,998.7
2022-11-16T04:59:49.960Z,998.7
2022-11-16T05:00:49.968Z,998.7
2022-11-16T05:01:50.114Z,998.8
2022-11-16T05:02:49.989Z,998.7
2022-11-16T05:03:49.987Z,998.8
2022-11-16T05:04:50.001Z,998.8
2022-11-16T05:05:50.000Z,998.8
2022-11-16T05:06:50.093Z,998.8
2022-11-16T05:07:50.028Z,998.8
2022-11-16T05:08:50.031Z,998.8
2022-11-16T05:09:50.039Z,998.8
2022-11-16T05:10:50.035Z,998.8
2022-11-16T05:11:50.063Z,998.8
2022-11-16T05:12:50.056Z,998.8
2022-11-16T05:13:50.067Z,998.8
2022-11-16T05:14:50.069Z,998.7
2022-11-16T05:15:50.079Z,998.6
2022-11-16T05:16:50.087Z,998.7
2022-11-16T05:17:50.092Z,998.7
2022-11-16T05:18:50.104Z,998.7
2022-11-16T05:19:50.108Z,998.7
2022-11-16T05:20:50.114Z,998.7
2022-11-16T05:21:50.125Z,998.8
2022-11-16T05:22:50.134Z,998.8
2022-11-16T05:23:50.135Z,998.8
2022-11-16T05:24:50.140Z,998.8
2022-11-16T05:25:50.149Z,998.8
2022-11-16T05:26:50.154Z,998.8
2022-11-16T05:27:50.173Z,998.9
2022-11-16T05:28:50.174Z,998.8
2022-11-16T05:29:50.189Z,998.8
2022-11-16T05:30:50.190Z,998.8
2022-11-16T05:31:50.203Z,998.7
2022-11-16T05:32:50.213Z,998.8
2022-11-16T05:33:50.226Z,998.8
2022-11-16T05:34:50.301Z,998.8
2022-11-16T05:35:50.246Z,998.8
2022-11-16T05:36:50.244Z,998.9
2022-11-16T05:37:50.263Z,998.8
2022-11-16T05:38:56.323Z,998.8
2022-11-16T05:39:50.273Z,998.7
2022-11-16T05:40:50.286Z,998.7
2022-11-16T05:41:50.290Z,998.8
2022-11-16T05:42:50.299Z,998.8
2022-11-16T05:43:50.312Z,998.7
2022-11-16T05:44:50.323Z,998.7
2022-11-16T05:45:50.328Z,998.7
2022-11-16T05:46:50.343Z,998.8
2022-11-16T05:47:50.354Z,998.7
2022-11-16T05:48:50.368Z,998.8
2022-11-16T05:49:50.376Z,998.8
2022-11-16T05:50:50.382Z,998.8
2022-11-16T05:51:50.386Z,998.8
2022-11-16T05:52:50.398Z,998.7
2022-11-16T05:53:50.404Z,998.8
2022-11-16T05:54:50.415Z,998.7
2022-11-16T05:55:50.581Z,998.8
2022-11-16T05:56:50.437Z,998.8
2022-11-16T05:57:50.443Z,998.7
2022-11-16T05:58:50.461Z,998.8
2022-11-16T05:59:50.467Z,998.8
2022-11-16T06:00:50.472Z,998.8
2022-11-16T06:01:50.491Z,998.8
2022-11-16T06:02:50.582Z,998.8
2022-11-16T06:03:50.496Z,998.9
2022-11-16T06:21:51.010Z,998.7
2022-11-16T06:22:50.671Z,998.7
2022-11-16T06:23:50.673Z,998.7
2022-11-16T06:24:50.677Z,998.7
2022-11-16T06:25:50.691Z,998.8
2022-11-16T06:26:50.691Z,998.7
2022-11-16T06:27:50.698Z,998.7
2022-11-16T06:28:50.707Z,998.7
2022-11-16T06:29:50.764Z,998.7
2022-11-16T06:30:50.727Z,998.6
2022-11-16T06:31:50.736Z,998.7
2022-11-16T06:32:50.738Z,998.7
2022-11-16T06:33:50.757Z,998.7
2022-11-16T06:34:50.764Z,998.7
2022-11-16T06:35:50.769Z,998.7
2022-11-16T06:36:50.785Z,998.7
2022-11-16T06:37:50.784Z,998.7
2022-11-16T06:38:50.821Z,998.7
2022-11-16T06:39:50.806Z,998.6
2022-11-16T06:40:50.813Z,998.7
2022-11-16T06:41:50.821Z,998.7
2022-11-16T06:42:50.833Z,998.7
2022-11-16T06:43:50.857Z,998.7
2022-11-16T06:44:50.858Z,998.7
2022-11-16T06:45:50.865Z,998.6
2022-11-16T06:46:50.871Z,998.6
2022-11-16T06:47:50.885Z,998.7
2022-11-16T06:48:50.887Z,998.7
2022-11-16T06:49:50.897Z,998.7
2022-11-16T06:50:50.908Z,998.7
2022-11-16T06:51:50.913Z,998.7
2022-11-16T06:52:50.920Z,998.7
2022-11-16T06:53:50.962Z,998.7
2022-11-16T06:54:50.934Z,998.8
2022-11-16T06:55:50.944Z,998.8
2022-11-16T06:56:51.065Z,998.7
2022-11-16T06:57:50.960Z,998.7
2022-11-16T06:58:53.871Z,998.8
2022-11-16T06:59:50.991Z,998.8
2022-11-16T07:00:51.022Z,998.8
2022-11-16T07:01:51.131Z,998.8
2022-11-16T07:02:51.016Z,998.8
2022-11-16T07:03:51.023Z,998.8
2022-11-16T07:04:51.041Z,998.8
2022-11-16T07:05:51.040Z,998.8
2022-11-16T07:06:51.141Z,998.8
2022-11-16T07:07:51.062Z,998.8
2022-11-16T07:08:51.070Z,998.8
2022-11-16T07:09:51.084Z,998.7
2022-11-16T07:10:51.103Z,998.8
2022-11-16T07:11:51.094Z,998.8
2022-11-16T07:12:51.114Z,998.8
2022-11-16T07:13:51.113Z,998.8
2022-11-16T07:14:51.118Z,998.7
2022-11-16T07:15:51.134Z,998.8
2022-11-16T07:16:59.858Z,998.8
2022-11-16T07:17:51.153Z,998.8
2022-11-16T07:18:51.167Z,998.8
2022-11-16T07:19:51.167Z,998.7
2022-11-16T07:20:51.165Z,998.7
2022-11-16T07:21:51.177Z,998.8
2022-11-16T07:22:51.181Z,998.7
2022-11-16T07:23:51.198Z,998.8
2022-11-16T07:24:51.198Z,998.8
2022-11-16T07:25:51.212Z,998.8
2022-11-16T07:26:51.373Z,998.8
2022-11-16T07:27:51.228Z,998.8
2022-11-16T07:28:51.244Z,998.8
2022-11-16T07:29:51.254Z,998.7
2022-11-16T07:30:51.266Z,998.6
2022-11-16T07:31:51.266Z,998.7
2022-11-16T07:32:51.281Z,998.8
2022-11-16T07:33:51.291Z,998.8
2022-11-16T07:34:51.302Z,998.8
2022-11-16T07:35:51.316Z,998.8
2022-11-16T07:36:51.322Z,998.8
2022-11-16T07:37:51.334Z,998.8
2022-11-16T07:38:51.351Z,998.7
2022-11-16T07:39:51.351Z,998.8
2022-11-16T07:40:51.361Z,998.8
2022-11-16T07:41:51.376Z,998.8
2022-11-16T07:42:51.387Z,998.8
2022-11-16T07:43:53.540Z,998.9
2022-11-16T07:44:51.405Z,998.7
2022-11-16T07:45:51.417Z,998.8
2022-11-16T07:46:51.423Z,998.8
2022-11-16T07:47:51.437Z,998.7
2022-11-16T07:48:51.443Z,998.8
2022-11-16T07:49:51.469Z,998.8
2022-11-16T07:50:51.456Z,998.8
2022-11-16T07:51:51.464Z,998.7
2022-11-16T07:52:51.474Z,998.8
2022-11-16T07:53:51.480Z,998.8
2022-11-16T07:54:51.489Z,998.7
2022-11-16T07:55:51.503Z,998.7
2022-11-16T07:56:51.516Z,998.8
2022-11-16T07:57:53.795Z,998.7
2022-11-16T07:58:51.523Z,998.8
2022-11-16T07:59:51.533Z,998.7
2022-11-16T08:00:51.541Z,998.8
2022-11-16T08:01:51.735Z,998.8
2022-11-16T08:02:51.555Z,998.8
2022-11-16T08:03:51.563Z,998.9
2022-11-16T08:04:51.569Z,998.8
2022-11-16T08:05:51.579Z,998.8
2022-11-16T08:06:51.936Z,998.8
2022-11-16T08:07:51.588Z,998.8
2022-11-16T08:08:59.018Z,998.8
2022-11-16T08:09:51.769Z,998.8
2022-11-16T08:10:51.623Z,998.8
2022-11-16T08:11:51.633Z,998.9
2022-11-16T08:12:51.637Z,998.7
2022-11-16T08:13:51.661Z,998.9
2022-11-16T08:14:51.660Z,998.8
2022-11-16T08:15:51.672Z,998.8
2022-11-16T08:16:51.681Z,998.9
2022-11-16T08:17:51.692Z,998.9
2022-11-16T08:18:51.707Z,998.9
2022-11-16T08:19:51.722Z,998.9
2022-11-16T08:20:51.733Z,998.8
2022-11-16T08:21:51.756Z,998.8
2022-11-16T08:22:51.753Z,998.8
2022-11-16T08:23:58.942Z,998.8
2022-11-16T08:24:51.767Z,998.8
2022-11-16T08:25:51.769Z,999.0
2022-11-16T08:26:51.786Z,998.8
2022-11-16T08:27:51.789Z,998.9
2022-11-16T08:28:51.793Z,999.0
2022-11-16T08:29:51.808Z,998.8
2022-11-16T08:30:54.181Z,998.9
2022-11-16T08:31:51.829Z,998.8
2022-11-16T08:32:51.840Z,998.8
2022-11-16T08:33:51.853Z,998.9
2022-11-16T08:34:51.863Z,998.8
2022-11-16T08:35:51.873Z,998.8
2022-11-16T08:36:51.878Z,999.0
2022-11-16T08:37:51.897Z,998.9
2022-11-16T08:38:51.922Z,999.0
2022-11-16T08:39:51.907Z,999.0
2022-11-16T08:40:51.920Z,998.9
2022-11-16T08:41:51.935Z,999.0
2022-11-16T08:42:51.942Z,999.0
2022-11-16T08:43:51.963Z,999.0
2022-11-16T08:44:51.970Z,999.0
2022-11-16T08:45:51.980Z,999.0
2022-11-16T08:46:51.994Z,998.9
2022-11-16T08:48:04.981Z,999.0
2022-11-16T08:48:52.012Z,998.9
2022-11-16T08:49:52.018Z,998.9
2022-11-16T08:51:16.774Z,998.9
2022-11-16T08:51:52.036Z,998.9
2022-11-16T08:52:52.044Z,999.0
2022-11-16T08:53:52.054Z,998.9
2022-11-16T08:54:52.065Z,998.9
2022-11-16T08:55:52.070Z,999.0
2022-11-16T08:56:52.079Z,998.9
2022-11-16T08:57:52.094Z,998.9
2022-11-16T08:58:59.072Z,998.9
2022-11-16T08:59:52.112Z,999.0
2022-11-16T09:00:52.128Z,999.0
2022-11-16T09:01:52.152Z,999.0
2022-11-16T09:02:52.146Z,999.0
2022-11-16T09:03:52.153Z,999.0
2022-11-16T09:04:52.165Z,998.9
2022-11-16T09:05:52.170Z,999.0
2022-11-16T09:06:52.263Z,999.0
2022-11-16T09:07:52.192Z,999.0
2022-11-16T09:08:52.199Z,999.0
2022-11-16T09:09:52.197Z,999.1
2022-11-16T09:10:52.216Z,999.0
2022-11-16T09:11:52.237Z,999.1
2022-11-16T09:12:52.238Z,999.0
2022-11-16T09:13:52.249Z,999.1
2022-11-16T09:14:52.257Z,999.1
2022-11-16T09:15:52.271Z,999.1
2022-11-16T09:16:52.276Z,999.0
2022-11-16T09:17:52.297Z,999.1
2022-11-16T09:18:52.280Z,999.1
2022-11-16T09:19:52.296Z,999.1
2022-11-16T09:20:52.312Z,999.0
2022-11-16T09:21:52.311Z,999.1
2022-11-16T09:22:52.328Z,999.1
2022-11-16T09:23:52.470Z,999.2
2022-11-16T09:24:52.339Z,999.1
2022-11-16T09:25:52.355Z,999.2
2022-11-16T09:26:52.351Z,999.1
2022-11-16T09:27:52.369Z,999.1
2022-11-16T09:28:52.381Z,999.2
2022-11-16T09:29:52.393Z,999.2
2022-11-16T09:30:52.400Z,999.2
2022-11-16T09:31:52.397Z,999.1
2022-11-16T09:32:52.410Z,999.2
2022-11-16T09:33:52.409Z,999.2
2022-11-16T09:34:52.471Z,999.2
2022-11-16T09:35:52.429Z,999.2
2022-11-16T09:36:52.464Z,999.1
2022-11-16T09:37:52.472Z,999.3
2022-11-16T09:39:52.497Z,999.3
2022-11-16T09:40:52.503Z,999.2
2022-11-16T09:41:52.526Z,999.2
2022-11-16T09:42:52.506Z,999.2
2022-11-16T09:43:52.514Z,999.3
2022-11-16T09:44:52.550Z,999.3
2022-11-16T09:45:52.528Z,999.2
2022-11-16T09:46:52.543Z,999.3
2022-11-16T09:47:52.543Z,999.2
2022-11-16T09:48:52.579Z,999.2
2022-11-16T09:49:52.558Z,999.3
2022-11-16T09:50:52.574Z,999.2
2022-11-16T09:51:52.603Z,999.2
2022-11-16T09:52:52.588Z,999.2
2022-11-16T09:53:52.599Z,999.3
2022-11-16T09:54:52.610Z,999.3
2022-11-16T09:55:52.619Z,999.2
2022-11-16T09:56:52.627Z,999.3
2022-11-16T09:57:52.637Z,999.3
2022-11-16T09:58:52.650Z,999.3
2022-11-16T09:59:52.656Z,999.3
2022-11-16T10:00:52.789Z,999.3
2022-11-16T10:01:52.684Z,999.4
2022-11-16T10:02:52.733Z,999.3
2022-11-16T10:03:52.694Z,999.4
2022-11-16T10:04:58.751Z,999.4
2022-11-16T10:05:52.870Z,999.5
2022-11-16T10:06:52.862Z,999.4
2022-11-16T10:07:52.729Z,999.4
2022-11-16T10:08:52.740Z,999.5
2022-11-16T10:09:52.752Z,999.4
2022-11-16T10:10:52.772Z,999.5
2022-11-16T10:11:52.775Z,999.5
2022-11-16T10:12:52.789Z,999.5
2022-11-16T10:13:52.805Z,999.5
2022-11-16T10:14:52.808Z,999.5
2022-11-16T10:15:52.834Z,999.4
2022-11-16T10:16:52.832Z,999.4
2022-11-16T10:17:52.849Z,999.5
2022-11-16T10:18:52.851Z,999.5
2022-11-16T10:19:52.859Z,999.5
2022-11-16T10:20:52.867Z,999.4
2022-11-16T10:21:52.874Z,999.5
2022-11-16T10:22:52.879Z,999.5
2022-11-16T10:23:52.885Z,999.5
2022-11-16T10:24:52.888Z,999.5
2022-11-16T10:25:52.906Z,999.4
2022-11-16T10:26:52.908Z,999.5
2022-11-16T10:27:52.917Z,999.5
2022-11-16T10:28:52.927Z,999.4
2022-11-16T10:29:52.944Z,999.5
2022-11-16T10:30:52.952Z,999.5
2022-11-16T10:31:52.956Z,999.5
2022-11-16T10:32:52.979Z,999.5
2022-11-16T10:33:52.988Z,999.5
2022-11-16T10:34:52.999Z,999.5
2022-11-16T10:35:53.009Z,999.4
2022-11-16T10:36:53.020Z,999.5
2022-11-16T10:37:53.034Z,999.5
2022-11-16T10:38:53.030Z,999.6
2022-11-16T10:39:53.093Z,999.4
2022-11-16T10:40:53.056Z,999.5
2022-11-16T10:41:53.061Z,999.5
2022-11-16T10:42:53.079Z,999.5
2022-11-16T10:43:53.103Z,999.5
2022-11-16T10:44:53.096Z,999.4
2022-11-16T10:45:53.116Z,999.4
2022-11-16T10:46:53.130Z,999.4
2022-11-16T10:47:53.149Z,999.4
2022-11-16T10:48:53.155Z,999.4
2022-11-16T10:49:53.175Z,999.4
2022-11-16T10:50:53.183Z,999.5
2022-11-16T10:51:53.184Z,999.4
2022-11-16T10:52:53.193Z,999.5
2022-11-16T10:53:53.218Z,999.3
2022-11-16T10:54:53.227Z,999.4
2022-11-16T10:55:53.224Z,999.3
2022-11-16T10:56:53.230Z,999.4
2022-11-16T10:57:53.239Z,999.4
2022-11-16T10:58:53.245Z,999.4
2022-11-16T10:59:53.254Z,999.4
2022-11-16T11:00:53.337Z,999.4
2022-11-16T11:01:53.418Z,999.3
2022-11-16T11:02:53.282Z,999.4
2022-11-16T11:03:53.287Z,999.5
2022-11-16T11:04:53.292Z,999.3
2022-11-16T11:05:53.322Z,999.4
2022-11-16T11:06:53.436Z,999.4
2022-11-16T11:07:59.833Z,999.4
2022-11-16T11:08:53.337Z,999.4
2022-11-16T11:09:53.354Z,999.4
2022-11-16T11:10:53.350Z,999.5
2022-11-16T11:11:53.366Z,999.3
2022-11-16T11:12:53.377Z,999.4
2022-11-16T11:13:53.380Z,999.3
2022-11-16T11:14:53.391Z,999.3
2022-11-16T11:15:53.561Z,999.3
2022-11-16T11:16:53.420Z,999.3
2022-11-16T11:17:53.427Z,999.3
2022-11-16T11:18:53.429Z,999.3
2022-11-16T11:19:53.444Z,999.4
2022-11-16T11:20:53.456Z,999.3
2022-11-16T11:21:53.476Z,999.3
2022-11-16T11:22:53.480Z,999.4
2022-11-16T11:23:53.491Z,999.3
2022-11-16T11:24:53.507Z,999.3
2022-11-16T11:25:53.534Z,999.3
2022-11-16T11:26:53.531Z,999.2
2022-11-16T11:27:53.536Z,999.2
2022-11-16T11:28:53.549Z,999.2
2022-11-16T11:29:53.554Z,999.3
2022-11-16T11:30:53.572Z,999.3
2022-11-16T11:31:53.581Z,999.3
2022-11-16T11:32:53.621Z,999.3
2022-11-16T11:33:53.600Z,999.3
2022-11-16T11:34:53.622Z,999.3
2022-11-16T11:35:53.633Z,999.2
2022-11-16T11:36:53.647Z,999.3
2022-11-16T11:37:53.655Z,999.3
2022-11-16T11:38:53.759Z,999.3
2022-11-16T11:39:53.681Z,999.3
2022-11-16T11:40:53.688Z,999.3
2022-11-16T11:41:53.707Z,999.2
2022-11-16T11:42:53.706Z,999.3
2022-11-16T11:43:53.714Z,999.2
2022-11-16T11:44:53.717Z,999.3
2022-11-16T11:45:53.738Z,999.3
2022-11-16T11:47:42.728Z,999.3
2022-11-16T11:47:59.938Z,999.2
2022-11-16T11:48:53.757Z,999.2
2022-11-16T11:49:53.773Z,999.2
2022-11-16T11:50:53.782Z,999.3
2022-11-16T11:51:53.793Z,999.2
2022-11-16T11:52:53.821Z,999.2
2022-11-16T11:53:53.823Z,999.2
2022-11-16T11:54:53.826Z,999.2
2022-11-16T11:55:53.992Z,999.2
2022-11-16T11:56:53.855Z,999.2
2022-11-16T11:57:53.868Z,999.2
2022-11-16T11:58:53.883Z,999.1
2022-11-16T11:59:53.916Z,999.2
2022-11-16T12:00:53.904Z,999.1
2022-11-16T12:01:53.907Z,999.2
2022-11-16T12:02:54.022Z,999.2
2022-11-16T12:03:53.934Z,999.2
2022-11-16T12:04:53.931Z,999.2
2022-11-16T12:05:53.952Z,999.2
2022-11-16T12:06:54.058Z,999.1
2022-11-16T12:07:53.965Z,999.2
2022-11-16T12:08:53.982Z,999.1
2022-11-16T12:09:53.994Z,999.1
2022-11-16T12:10:54.003Z,999.1
2022-11-16T12:11:54.016Z,999.2
2022-11-16T12:12:54.018Z,999.0
2022-11-16T12:13:54.030Z,999.2
2022-11-16T12:14:54.036Z,999.2
2022-11-16T12:15:54.058Z,999.2
2022-11-16T12:16:54.063Z,999.2
2022-11-16T12:17:54.077Z,999.1
2022-11-16T12:18:54.083Z,999.2
2022-11-16T12:19:54.088Z,999.1
2022-11-16T12:20:54.097Z,999.2
2022-11-16T12:21:54.101Z,999.2
2022-11-16T12:22:54.119Z,999.1
2022-11-16T12:23:54.119Z,999.2
2022-11-16T12:24:54.137Z,999.2
2022-11-16T12:25:54.142Z,999.2
2022-11-16T12:26:54.156Z,999.1
2022-11-16T12:27:54.176Z,999.2
2022-11-16T12:28:54.176Z,999.1
2022-11-16T12:29:54.198Z,999.1
2022-11-16T12:30:57.819Z,999.1
2022-11-16T12:31:54.212Z,999.1
2022-11-16T12:32:54.220Z,999.1
2022-11-16T12:33:54.220Z,999.1
2022-11-16T12:34:54.229Z,999.1
2022-11-16T12:35:54.241Z,999.1
2022-11-16T12:36:54.252Z,999.1
2022-11-16T12:37:54.251Z,999.1
2022-11-16T12:38:54.260Z,999.1
2022-11-16T12:39:54.274Z,999.0
2022-11-16T12:40:54.295Z,999.1
2022-11-16T12:41:54.305Z,999.1
2022-11-16T12:42:54.325Z,999.1
2022-11-16T12:43:54.331Z,999.1
2022-11-16T12:44:54.345Z,999.1
2022-11-16T12:45:54.369Z,999.1
2022-11-16T12:46:54.379Z,999.2
2022-11-16T12:47:54.385Z,999.1
2022-11-16T12:48:54.408Z,999.1
2022-11-16T12:49:54.405Z,999.2
2022-11-16T12:50:54.412Z,999.1
2022-11-16T12:51:54.423Z,999.1
2022-11-16T12:52:54.442Z,999.1
2022-11-16T12:53:54.462Z,999.1
2022-11-16T12:55:25.181Z,999.1
2022-11-16T12:55:54.473Z,999.0
2022-11-16T12:56:54.498Z,999.0
2022-11-16T12:57:54.492Z,999.0
2022-11-16T12:58:54.511Z,999.1
2022-11-16T12:59:54.519Z,999.0
2022-11-16T13:00:54.698Z,999.1
2022-11-16T13:02:00.840Z,999.0
2022-11-16T13:02:54.554Z,999.0
2022-11-16T13:03:54.567Z,999.0
2022-11-16T13:04:54.567Z,999.1
2022-11-16T13:05:54.581Z,999.1
2022-11-16T13:06:54.669Z,999.0
2022-11-16T13:07:54.594Z,999.0
2022-11-16T13:08:54.599Z,999.1
2022-11-16T13:09:54.614Z,999.1
2022-11-16T13:10:54.629Z,999.1
2022-11-16T13:11:54.714Z,999.1
2022-11-16T13:13:55.474Z,999.1
2022-11-16T13:14:54.664Z,999.1
2022-11-16T13:15:54.675Z,999.1
2022-11-16T13:16:54.688Z,999.1
2022-11-16T13:17:54.689Z,999.0
2022-11-16T13:18:54.736Z,999.1
2022-11-16T13:19:54.713Z,999.1
2022-11-16T13:20:54.728Z,999.1
2022-11-16T13:21:54.738Z,999.1
2022-11-16T13:22:54.765Z,999.1
2022-11-16T13:23:54.793Z,999.1
2022-11-16T13:24:54.787Z,999.1
2022-11-16T13:25:54.799Z,999.1
2022-11-16T13:26:54.809Z,999.1
2022-11-16T13:27:54.818Z,999.1
2022-11-16T13:28:54.823Z,999.1